createdAt,value
2022-08-01T00:00:50.787Z,100.00
2022-08-01T00:03:18.573Z,100.00
2022-08-01T00:05:47.661Z,100.00
2022-08-01T00:08:15.503Z,100.00
2022-08-01T00:10:43.250Z,100.00
2022-08-01T00:13:10.987Z,100.00
2022-08-01T00:15:38.678Z,100.00
2022-08-01T00:18:07.913Z,100.00
2022-08-01T00:20:35.944Z,100.00
2022-08-01T00:23:04.498Z,100.00
2022-08-01T00:25:33.717Z,100.00
2022-08-01T00:28:02.417Z,100.00
2022-08-01T00:30:32.548Z,100.00
2022-08-01T00:33:00.278Z,100.00
2022-08-01T00:35:29.389Z,100.00
2022-08-01T00:37:57.229Z,100.00
2022-08-01T00:40:25.152Z,100.00
2022-08-01T00:42:52.843Z,100.00
2022-08-01T00:45:20.664Z,100.00
2022-08-01T00:47:48.384Z,100.00
2022-08-01T00:50:24.869Z,100.00
2022-08-01T00:52:54.314Z,100.00
2022-08-01T00:55:22.233Z,100.00
2022-08-01T00:58:02.232Z,100.00
2022-08-01T01:00:34.901Z,100.00
2022-08-01T01:03:20.392Z,100.00
2022-08-01T01:05:55.604Z,100.00
2022-08-01T01:08:29.668Z,100.00
2022-08-01T01:11:00.425Z,100.00
2022-08-01T01:13:34.038Z,100.00
2022-08-01T01:16:04.526Z,100.00
2022-08-01T01:18:35.372Z,100.00
2022-08-01T01:21:07.834Z,100.00
2022-08-01T01:23:48.452Z,100.00
2022-08-01T01:26:34.382Z,100.00
2022-08-01T01:29:09.799Z,100.00
2022-08-01T01:31:42.770Z,100.00
2022-08-01T01:34:11.873Z,100.00
2022-08-01T01:36:41.652Z,100.00
2022-08-01T01:39:09.665Z,100.00
2022-08-01T01:41:39.256Z,100.00
2022-08-01T01:44:08.737Z,100.00
2022-08-01T01:46:37.955Z,100.00
2022-08-01T01:49:06.450Z,100.00
2022-08-01T01:51:34.975Z,100.00
2022-08-01T01:54:03.312Z,100.00
2022-08-01T01:56:32.101Z,100.00
2022-08-01T01:59:02.451Z,100.00
2022-08-01T02:01:58.854Z,100.00
2022-08-01T02:04:22.509Z,100.00
2022-08-01T02:06:53.112Z,100.00
2022-08-01T02:09:22.404Z,100.00
2022-08-01T02:12:07.240Z,100.00
2022-08-01T02:14:37.063Z,100.00
2022-08-01T02:17:06.246Z,100.00
2022-08-01T02:19:38.396Z,100.00
2022-08-01T02:22:10.222Z,100.00
2022-08-01T02:24:40.006Z,100.00
2022-08-01T02:28:13.111Z,100.00
2022-08-01T02:30:44.910Z,100.00
2022-08-01T02:33:18.333Z,100.00
2022-08-01T02:36:32.258Z,100.00
2022-08-01T02:38:38.476Z,100.00
2022-08-01T02:41:09.372Z,100.00
2022-08-01T02:43:40.051Z,100.00
2022-08-01T02:46:10.528Z,100.00
2022-08-01T02:48:42.800Z,100.00
2022-08-01T02:51:11.282Z,100.00
2022-08-01T02:53:44.599Z,100.00
2022-08-01T02:56:13.494Z,100.00
2022-08-01T02:58:41.652Z,100.00
2022-08-01T03:01:10.301Z,100.00
2022-08-01T03:03:39.328Z,100.00
2022-08-01T03:06:09.202Z,100.00
2022-08-01T03:08:37.852Z,100.00
2022-08-01T03:11:07.211Z,100.00
2022-08-01T03:13:35.253Z,100.00
2022-08-01T03:16:03.634Z,100.00
2022-08-01T03:18:32.226Z,100.00
2022-08-01T03:21:01.379Z,100.00
2022-08-01T03:23:37.972Z,100.00
2022-08-01T03:26:06.315Z,100.00
2022-08-01T03:28:34.090Z,100.00
2022-08-01T03:31:02.590Z,100.00
2022-08-01T03:33:30.968Z,100.00
2022-08-01T03:36:01.266Z,100.00
2022-08-01T03:38:30.905Z,100.00
2022-08-01T03:41:01.548Z,100.00
2022-08-01T03:43:33.770Z,100.00
2022-08-01T03:46:08.401Z,100.00
2022-08-01T03:48:41.728Z,100.00
2022-08-01T03:51:09.816Z,100.00
2022-08-01T03:53:42.361Z,100.00
2022-08-01T03:56:11.110Z,100.00
2022-08-01T03:58:41.326Z,100.00
2022-08-01T04:01:15.680Z,100.00
2022-08-01T04:03:44.315Z,100.00
2022-08-01T04:06:12.323Z,100.00
2022-08-01T04:08:42.249Z,100.00
2022-08-01T04:11:10.660Z,100.00
2022-08-01T04:13:38.655Z,100.00
2022-08-01T04:16:06.997Z,100.00
2022-08-01T04:18:35.207Z,100.00
2022-08-01T04:21:02.970Z,100.00
2022-08-01T04:23:33.446Z,100.00
2022-08-01T04:26:06.086Z,100.00
2022-08-01T04:28:36.704Z,100.00
2022-08-01T04:31:05.751Z,100.00
2022-08-01T04:33:37.429Z,100.00
2022-08-01T04:36:06.466Z,100.00
2022-08-01T04:38:37.793Z,100.00
2022-08-01T04:41:09.869Z,100.00
2022-08-01T04:43:38.128Z,100.00
2022-08-01T04:46:06.294Z,100.00
2022-08-01T04:48:34.855Z,100.00
2022-08-01T04:51:02.842Z,100.00
2022-08-01T04:53:33.286Z,100.00
2022-08-01T04:56:01.660Z,100.00
2022-08-01T04:58:30.731Z,100.00
2022-08-01T05:00:58.534Z,100.00
2022-08-01T05:03:26.302Z,100.00
2022-08-01T05:05:54.008Z,100.00
2022-08-01T05:08:21.740Z,100.00
2022-08-01T05:10:49.508Z,100.00
2022-08-01T05:13:18.852Z,100.00
2022-08-01T05:15:48.026Z,100.00
2022-08-01T05:18:15.994Z,100.00
2022-08-01T05:20:43.682Z,100.00
2022-08-01T05:23:17.243Z,100.00
2022-08-01T05:25:59.337Z,100.00
2022-08-01T05:28:27.050Z,100.00
2022-08-01T05:30:56.693Z,100.00
2022-08-01T05:33:24.539Z,100.00
2022-08-01T05:35:52.262Z,100.00
2022-08-01T05:38:19.946Z,100.00
2022-08-01T05:40:47.730Z,100.00
2022-08-01T05:43:15.449Z,100.00
2022-08-01T05:45:43.477Z,100.00
2022-08-01T05:48:12.615Z,100.00
2022-08-01T05:50:40.322Z,100.00
2022-08-01T05:53:08.089Z,100.00
2022-08-01T05:55:36.822Z,100.00
2022-08-01T05:58:04.601Z,100.00
2022-08-01T06:00:32.304Z,100.00
2022-08-01T06:03:00.152Z,100.00
2022-08-01T06:05:29.310Z,100.00
2022-08-01T06:07:57.020Z,100.00
2022-08-01T06:10:24.783Z,100.00
2022-08-01T06:12:52.515Z,100.00
2022-08-01T06:15:20.618Z,100.00
2022-08-01T06:17:48.412Z,100.00
2022-08-01T06:20:16.313Z,100.00
2022-08-01T06:22:45.401Z,100.00
2022-08-01T06:25:21.335Z,100.00
2022-08-01T06:27:50.595Z,100.00
2022-08-01T06:30:18.442Z,100.00
2022-08-01T06:32:46.294Z,100.00
2022-08-01T06:35:13.996Z,100.00
2022-08-01T06:37:41.718Z,100.00
2022-08-01T06:40:17.166Z,100.00
2022-08-01T06:42:46.671Z,100.00
2022-08-01T06:45:16.610Z,100.00
2022-08-01T06:47:45.374Z,100.00
2022-08-01T06:50:18.431Z,100.00
2022-08-01T06:52:46.361Z,100.00
2022-08-01T06:55:15.835Z,100.00
2022-08-01T06:57:51.141Z,98.61
2022-08-01T07:00:23.220Z,99.79
2022-08-01T07:02:53.120Z,98.42
2022-08-01T07:05:21.148Z,99.16
2022-08-01T07:07:49.327Z,98.83
2022-08-01T07:10:19.467Z,95.44
2022-08-01T07:12:47.349Z,94.89
2022-08-01T07:15:15.242Z,95.60
2022-08-01T07:17:44.820Z,94.75
2022-08-01T07:20:16.423Z,96.80
2022-08-01T07:22:47.633Z,93.81
2022-08-01T07:25:17.198Z,91.92
2022-08-01T07:27:47.022Z,92.52
2022-08-01T07:30:15.293Z,92.13
2022-08-01T07:32:43.108Z,90.21
2022-08-01T07:35:11.419Z,91.53
2022-08-01T07:37:47.950Z,89.15
2022-08-01T07:40:16.751Z,89.16
2022-08-01T07:42:46.263Z,89.49
2022-08-01T07:45:15.025Z,89.90
2022-08-01T07:47:42.915Z,89.13
2022-08-01T07:50:12.132Z,86.01
2022-08-01T07:52:39.845Z,86.00
2022-08-01T07:55:09.038Z,89.42
2022-08-01T07:57:36.957Z,86.19
2022-08-01T08:00:07.546Z,86.73
2022-08-01T08:02:35.241Z,87.71
2022-08-01T08:05:12.642Z,88.72
2022-08-01T08:07:40.863Z,86.91
2022-08-01T08:10:09.471Z,86.63
2022-08-01T08:12:37.276Z,87.02
2022-08-01T08:15:07.877Z,87.87
2022-08-01T08:17:36.787Z,85.89
2022-08-01T08:20:15.547Z,84.25
2022-08-01T08:22:44.506Z,81.44
2022-08-01T08:25:12.536Z,80.99
2022-08-01T08:27:40.332Z,80.36
2022-08-01T08:30:13.607Z,81.26
2022-08-01T08:32:41.824Z,81.06
2022-08-01T08:35:11.887Z,81.14
2022-08-01T08:37:47.605Z,78.50
2022-08-01T08:40:19.704Z,76.68
2022-08-01T08:42:48.412Z,76.96
2022-08-01T08:45:17.600Z,77.51
2022-08-01T08:50:15.512Z,78.70
2022-08-01T08:52:44.698Z,79.24
2022-08-01T08:55:16.734Z,76.02
2022-08-01T08:57:45.848Z,72.07
2022-08-01T09:00:15.611Z,72.87
2022-08-01T09:02:45.296Z,76.41
2022-08-01T09:05:18.878Z,76.34
2022-08-01T09:07:47.073Z,75.84
2022-08-01T09:10:14.765Z,74.67
2022-08-01T09:13:06.571Z,73.37
2022-08-01T09:15:42.713Z,70.00
2022-08-01T09:18:28.370Z,73.48
2022-08-01T09:21:15.968Z,73.70
2022-08-01T09:23:53.283Z,73.49
2022-08-01T09:26:25.082Z,71.47
2022-08-01T09:28:54.567Z,71.54
2022-08-01T09:31:22.652Z,68.97
2022-08-01T09:33:54.203Z,69.19
2022-08-01T09:36:23.988Z,71.54
2022-08-01T09:38:52.287Z,69.40
2022-08-01T09:41:40.034Z,68.12
2022-08-01T09:44:08.131Z,69.32
2022-08-01T09:46:37.352Z,69.15
2022-08-01T09:49:10.688Z,66.52
2022-08-01T09:52:00.068Z,67.52
2022-08-01T09:54:32.522Z,69.63
2022-08-01T09:57:11.210Z,65.91
2022-08-01T09:59:57.783Z,67.26
2022-08-01T10:02:31.473Z,65.40
2022-08-01T10:05:03.723Z,65.07
2022-08-01T10:07:43.112Z,64.81
2022-08-01T10:10:14.424Z,61.98
2022-08-01T10:12:45.310Z,61.19
2022-08-01T10:15:14.385Z,61.86
2022-08-01T10:17:50.930Z,62.73
2022-08-01T10:20:30.211Z,61.32
2022-08-01T10:23:01.893Z,61.03
2022-08-01T10:25:43.012Z,60.48
2022-08-01T10:28:17.907Z,59.28
2022-08-01T10:30:49.324Z,61.17
2022-08-01T10:33:20.102Z,58.72
2022-08-01T10:36:08.845Z,58.56
2022-08-01T10:38:38.027Z,55.96
2022-08-01T10:41:08.611Z,58.00
2022-08-01T10:43:36.870Z,56.50
2022-08-01T10:46:05.408Z,56.34
2022-08-01T10:48:40.303Z,57.86
2022-08-01T10:51:18.373Z,59.43
2022-08-01T10:53:50.477Z,58.75
2022-08-01T10:56:27.226Z,56.87
2022-08-01T10:59:06.231Z,58.44
2022-08-01T11:01:37.861Z,57.71
2022-08-01T11:04:15.523Z,56.65
2022-08-01T11:06:55.300Z,54.25
2022-08-01T11:09:36.890Z,56.28
2022-08-01T11:12:13.245Z,55.75
2022-08-01T11:15:29.558Z,54.82
2022-08-01T11:18:01.210Z,55.31
2022-08-01T11:20:32.495Z,56.99
2022-08-01T11:23:29.736Z,55.98
2022-08-01T11:26:14.717Z,56.83
2022-08-01T11:29:10.903Z,55.28
2022-08-01T11:31:37.736Z,53.92
2022-08-01T11:34:06.165Z,54.27
2022-08-01T11:36:57.491Z,54.08
2022-08-01T11:39:23.328Z,55.68
2022-08-01T11:41:53.759Z,53.75
2022-08-01T11:44:28.388Z,54.27
2022-08-01T11:47:09.021Z,54.41
2022-08-01T11:49:50.317Z,55.57
2022-08-01T11:52:20.652Z,53.79
2022-08-01T11:54:51.134Z,55.86
2022-08-01T11:57:23.321Z,54.21
2022-08-01T12:00:02.609Z,54.01
2022-08-01T12:02:33.365Z,53.21
2022-08-01T12:05:02.505Z,53.04
2022-08-01T12:07:34.393Z,53.43
2022-08-01T12:10:06.553Z,54.07
2022-08-01T12:12:35.290Z,50.54
2022-08-01T12:15:05.345Z,51.57
2022-08-01T12:17:35.064Z,48.82
2022-08-01T12:20:03.227Z,50.75
2022-08-01T12:22:30.977Z,48.35
2022-08-01T12:25:09.822Z,49.42
2022-08-01T12:27:38.628Z,50.56
2022-08-01T12:30:09.378Z,50.89
2022-08-01T12:32:38.458Z,50.34
2022-08-01T12:35:07.999Z,50.92
2022-08-01T12:37:38.187Z,50.58
2022-08-01T12:40:14.848Z,50.08
2022-08-01T12:42:43.406Z,51.67
2022-08-01T12:45:12.310Z,54.58
2022-08-01T12:47:41.092Z,49.21
2022-08-01T12:50:11.715Z,50.80
2022-08-01T12:52:39.964Z,50.39
2022-08-01T13:05:30.095Z,50.98
2022-08-01T13:07:58.326Z,50.85
2022-08-01T13:10:31.429Z,49.46
2022-08-01T13:13:01.294Z,48.57
2022-08-01T13:15:33.816Z,48.48
2022-08-01T13:18:03.565Z,49.64
2022-08-01T13:20:36.368Z,50.62
2022-08-01T13:24:01.281Z,49.82
2022-08-01T13:26:09.318Z,49.51
2022-08-01T13:34:34.154Z,50.45
2022-08-01T13:37:05.699Z,50.44
2022-08-01T13:39:54.655Z,48.88
2022-08-01T13:42:28.372Z,49.25
2022-08-01T13:44:56.577Z,50.60
2022-08-01T13:47:31.345Z,49.30
2022-08-01T13:50:03.410Z,49.53
2022-08-01T13:52:33.619Z,50.31
2022-08-01T13:55:04.099Z,49.59
2022-08-01T13:57:39.118Z,49.35
2022-08-01T14:00:13.102Z,49.11
2022-08-01T14:02:41.584Z,48.96
2022-08-01T14:05:09.816Z,49.42
2022-08-01T14:07:41.351Z,49.91
2022-08-01T14:10:19.961Z,50.56
2022-08-01T14:13:01.997Z,50.49
2022-08-01T14:15:42.124Z,52.11
2022-08-01T14:18:16.901Z,52.43
2022-08-01T14:20:47.708Z,53.33
2022-08-01T14:23:23.967Z,53.27
2022-08-01T14:26:02.553Z,54.38
2022-08-01T14:31:22.706Z,52.65
2022-08-01T14:33:51.974Z,51.27
2022-08-01T14:36:47.259Z,50.54
2022-08-01T14:39:25.894Z,49.90
2022-08-01T14:41:57.200Z,49.80
2022-08-01T14:44:28.779Z,49.75
2022-08-01T14:47:02.962Z,48.57
2022-08-01T14:49:51.756Z,46.75
2022-08-01T14:52:21.057Z,47.79
2022-08-01T14:55:06.883Z,49.55
2022-08-01T14:57:39.391Z,48.58
2022-08-01T15:00:12.624Z,49.12
2022-08-01T15:02:40.862Z,49.85
2022-08-01T15:05:16.597Z,49.73
2022-08-01T15:07:52.346Z,49.74
2022-08-01T15:10:24.522Z,49.06
2022-08-01T15:12:53.568Z,48.12
2022-08-01T15:15:22.258Z,49.61
2022-08-01T15:17:54.039Z,50.79
2022-08-01T15:20:22.798Z,50.90
2022-08-01T15:22:52.394Z,49.84
2022-08-01T15:25:41.115Z,49.66
2022-08-01T15:28:11.087Z,49.68
2022-08-01T15:30:42.039Z,49.90
2022-08-01T15:33:11.613Z,49.72
2022-08-01T15:35:40.708Z,50.77
2022-08-01T15:38:09.753Z,48.99
2022-08-01T15:41:06.794Z,48.69
2022-08-01T15:43:38.006Z,48.60
2022-08-01T15:46:11.974Z,49.63
2022-08-01T15:48:42.006Z,50.53
2022-08-01T15:51:12.405Z,51.19
2022-08-01T15:53:41.487Z,52.04
2022-08-01T15:56:11.376Z,53.32
2022-08-01T15:58:41.393Z,55.42
2022-08-01T16:01:10.688Z,55.21
2022-08-01T16:03:39.153Z,56.67
2022-08-01T16:06:08.230Z,57.32
2022-08-01T16:08:37.171Z,57.66
2022-08-01T16:11:08.254Z,56.32
2022-08-01T16:13:37.962Z,55.87
2022-08-01T16:16:09.753Z,55.75
2022-08-01T16:18:39.451Z,56.52
2022-08-01T16:21:09.072Z,57.76
2022-08-01T16:23:40.232Z,57.59
2022-08-01T16:26:15.541Z,59.36
2022-08-01T16:28:58.896Z,59.92
2022-08-01T16:31:36.509Z,60.26
2022-08-01T16:34:15.138Z,60.66
2022-08-01T16:36:45.680Z,61.33
2022-08-01T16:39:22.812Z,60.96
2022-08-01T16:41:54.954Z,60.03
2022-08-01T16:44:28.634Z,61.52
2022-08-01T16:47:02.346Z,61.76
2022-08-01T16:49:32.449Z,62.01
2022-08-01T16:52:01.642Z,63.29
2022-08-01T16:54:29.876Z,63.57
2022-08-01T16:57:08.843Z,65.30
2022-08-01T16:59:40.833Z,66.04
2022-08-01T17:02:11.091Z,66.37
2022-08-01T17:04:39.529Z,66.77
2022-08-01T17:07:08.296Z,66.55
2022-08-01T17:09:41.361Z,66.24
2022-08-01T17:12:21.861Z,66.73
2022-08-01T17:14:52.393Z,65.58
2022-08-01T17:17:22.127Z,65.89
2022-08-01T17:19:50.440Z,65.32
2022-08-01T17:22:19.942Z,65.19
2022-08-01T17:24:51.506Z,64.52
2022-08-01T17:27:20.990Z,64.55
2022-08-01T17:29:49.496Z,65.49
2022-08-01T17:32:26.060Z,69.07
2022-08-01T17:34:55.287Z,71.61
2022-08-01T17:37:23.514Z,72.69
2022-08-01T17:39:52.056Z,72.19
2022-08-01T17:42:20.939Z,72.00
2022-08-01T17:44:52.098Z,71.80
2022-08-01T17:47:49.315Z,72.40
2022-08-01T17:50:14.001Z,73.28
2022-08-01T17:52:42.848Z,74.23
2022-08-01T17:55:53.763Z,74.55
2022-08-01T17:57:59.988Z,74.44
2022-08-01T18:00:28.874Z,74.28
2022-08-01T18:02:59.015Z,75.40
2022-08-01T18:05:36.820Z,75.77
2022-08-01T18:08:08.244Z,75.94
2022-08-01T19:17:26.475Z,89.20
2022-08-01T19:32:07.756Z,88.98
2022-08-01T19:54:16.413Z,84.81
2022-08-01T19:58:26.293Z,85.10
2022-08-01T20:00:58.766Z,86.51
2022-08-01T20:04:14.135Z,85.92
2022-08-01T20:08:51.068Z,86.03
2022-08-01T20:12:06.478Z,87.49
2022-08-01T21:36:53.539Z,93.91
2022-08-01T21:39:37.437Z,93.75
2022-08-01T21:42:19.505Z,93.78
2022-08-01T21:45:21.889Z,94.88
2022-08-01T21:48:36.027Z,95.14
2022-08-01T21:54:34.798Z,94.89
2022-08-01T22:56:56.959Z,98.02
2022-08-01T22:59:42.566Z,98.08
2022-08-01T23:02:17.505Z,97.89
2022-08-01T23:04:47.636Z,97.69
2022-08-01T23:07:21.136Z,97.83
2022-08-01T23:10:09.028Z,97.51
2022-08-01T23:12:39.304Z,97.49
2022-08-01T23:15:09.279Z,97.35
2022-08-01T23:17:38.784Z,97.97
2022-08-01T23:20:08.876Z,97.48
2022-08-01T23:22:38.601Z,97.96
2022-08-01T23:25:09.046Z,97.76
2022-08-01T23:28:04.362Z,97.69
2022-08-01T23:30:32.182Z,97.74
2022-08-01T23:33:00.708Z,96.85
2022-08-01T23:35:29.414Z,96.80
2022-08-01T23:38:01.849Z,96.36
2022-08-01T23:40:31.856Z,96.25
2022-08-01T23:43:02.202Z,96.17
2022-08-01T23:46:01.720Z,96.28
2022-08-01T23:48:19.198Z,96.43
2022-08-01T23:50:47.287Z,96.33
2022-08-01T23:53:15.255Z,96.32
2022-08-01T23:55:44.254Z,97.04
